createdAt,value
2019-02-09T00:00:44.887Z,978.48
2019-02-09T00:01:44.820Z,978.47
2019-02-09T00:02:44.760Z,978.44
2019-02-09T00:03:44.699Z,978.43
2019-02-09T00:04:44.637Z,978.45
2019-02-09T00:05:44.578Z,978.45
2019-02-09T00:06:44.514Z,978.45
2019-02-09T00:07:44.460Z,978.44
2019-02-09T00:08:44.391Z,978.38
2019-02-09T00:09:44.332Z,978.39
2019-02-09T00:10:44.270Z,978.40
2019-02-09T00:11:44.208Z,978.44
2019-02-09T00:12:44.149Z,978.42
2019-02-09T00:13:44.086Z,978.43
2019-02-09T00:14:44.023Z,978.35
2019-02-09T00:15:43.962Z,978.35
2019-02-09T00:16:43.902Z,978.30
2019-02-09T00:17:43.839Z,978.29
2019-02-09T00:18:43.778Z,978.22
2019-02-09T00:19:43.717Z,978.26
2019-02-09T00:20:43.657Z,978.19
2019-02-09T00:21:43.596Z,978.19
2019-02-09T00:22:43.538Z,978.16
2019-02-09T00:23:43.473Z,978.13
2019-02-09T00:24:43.413Z,978.19
2019-02-09T00:25:43.352Z,978.16
2019-02-09T00:26:43.289Z,978.18
2019-02-09T00:27:43.232Z,978.14
2019-02-09T00:28:43.168Z,978.15
2019-02-09T00:29:46.259Z,978.18
2019-02-09T00:30:43.044Z,978.14
2019-02-09T00:31:42.981Z,978.09
2019-02-09T00:32:42.921Z,978.09
2019-02-09T00:33:42.860Z,978.11
2019-02-09T00:34:42.797Z,978.11
2019-02-09T00:35:42.739Z,978.09
2019-02-09T00:36:42.689Z,978.06
2019-02-09T00:37:42.613Z,978.02
2019-02-09T00:38:42.553Z,978.05
2019-02-09T00:39:42.492Z,978.05
2019-02-09T00:40:42.430Z,978.07
2019-02-09T00:41:42.373Z,978.02
2019-02-09T00:42:42.308Z,978.04
2019-02-09T00:43:42.246Z,978.03
2019-02-09T00:44:42.192Z,978.04
2019-02-09T00:45:42.124Z,977.93
2019-02-09T00:46:42.064Z,977.99
2019-02-09T00:47:42.003Z,978.00
2019-02-09T00:48:41.940Z,977.95
2019-02-09T00:49:41.878Z,977.92
2019-02-09T00:50:41.817Z,977.88
2019-02-09T00:51:41.756Z,977.90
2019-02-09T00:52:41.695Z,977.80
2019-02-09T00:53:41.633Z,977.77
2019-02-09T00:54:41.571Z,977.75
2019-02-09T00:55:41.510Z,977.74
2019-02-09T00:56:41.450Z,977.74
2019-02-09T00:57:41.389Z,977.71
2019-02-09T00:58:41.329Z,977.69
2019-02-09T00:59:41.266Z,977.71
2019-02-09T01:00:41.203Z,977.64
2019-02-09T01:01:41.142Z,977.67
2019-02-09T01:02:41.082Z,977.61
2019-02-09T01:03:41.019Z,977.60
2019-02-09T01:04:40.959Z,977.61
2019-02-09T01:05:40.897Z,977.61
2019-02-09T01:06:40.835Z,977.59
2019-02-09T01:07:40.775Z,977.62
2019-02-09T01:08:40.720Z,977.61
2019-02-09T01:09:40.651Z,977.56
2019-02-09T01:10:40.591Z,977.54
2019-02-09T01:11:40.529Z,977.53
2019-02-09T01:12:40.469Z,977.52
2019-02-09T01:13:40.406Z,977.49
2019-02-09T01:14:40.349Z,977.46
2019-02-09T01:15:40.284Z,977.44
2019-02-09T01:16:40.223Z,977.45
2019-02-09T01:17:40.160Z,977.39
2019-02-09T01:18:40.100Z,977.40
2019-02-09T01:19:40.040Z,977.38
2019-02-09T01:20:39.978Z,977.37
2019-02-09T01:21:39.916Z,977.40
2019-02-09T01:22:39.855Z,977.37
2019-02-09T01:23:39.793Z,977.36
2019-02-09T01:24:39.732Z,977.41
2019-02-09T01:25:39.670Z,977.31
2019-02-09T01:26:39.608Z,977.40
2019-02-09T01:27:39.547Z,977.39
2019-02-09T01:28:39.486Z,977.37
2019-02-09T01:29:39.428Z,977.37
2019-02-09T01:30:39.362Z,977.34
2019-02-09T01:31:39.302Z,977.36
2019-02-09T01:32:39.241Z,977.36
2019-02-09T01:33:39.179Z,977.30
2019-02-09T01:34:39.118Z,977.26
2019-02-09T01:35:39.059Z,977.30
2019-02-09T01:36:38.995Z,977.22
2019-02-09T01:37:38.934Z,977.22
2019-02-09T01:38:38.873Z,977.23
2019-02-09T01:39:38.812Z,977.24
2019-02-09T01:40:38.756Z,977.20
2019-02-09T01:41:38.692Z,977.14
2019-02-09T01:42:38.627Z,977.16
2019-02-09T01:43:38.565Z,977.13
2019-02-09T01:44:38.504Z,977.09
2019-02-09T01:45:38.445Z,977.09
2019-02-09T01:46:38.386Z,977.03
2019-02-09T01:47:38.320Z,977.08
2019-02-09T01:48:38.258Z,977.02
2019-02-09T01:49:38.196Z,977.03
2019-02-09T01:50:38.140Z,977.07
2019-02-09T01:51:38.078Z,977.03
2019-02-09T01:52:38.015Z,976.96
2019-02-09T01:53:37.951Z,976.94
2019-02-09T01:54:37.891Z,976.99
2019-02-09T01:55:37.829Z,976.93
2019-02-09T01:56:37.768Z,976.91
2019-02-09T01:57:37.706Z,976.90
2019-02-09T01:58:37.645Z,976.92
2019-02-09T01:59:37.585Z,976.83
2019-02-09T02:00:37.523Z,976.85
2019-02-09T02:01:37.549Z,976.84
2019-02-09T02:02:44.450Z,976.75
2019-02-09T02:03:37.473Z,976.76
2019-02-09T02:04:37.278Z,976.74
2019-02-09T02:05:37.223Z,976.82
2019-02-09T02:06:37.155Z,976.72
2019-02-09T02:07:37.095Z,976.72
2019-02-09T02:08:37.032Z,976.70
2019-02-09T02:09:36.969Z,976.70
2019-02-09T02:10:36.909Z,976.65
2019-02-09T02:11:36.847Z,976.65
2019-02-09T02:12:36.787Z,976.57
2019-02-09T02:13:36.725Z,976.56
2019-02-09T02:14:36.664Z,976.55
2019-02-09T02:15:36.602Z,976.55
2019-02-09T02:16:36.542Z,976.47
2019-02-09T02:17:36.479Z,976.48
2019-02-09T02:18:36.423Z,976.48
2019-02-09T02:19:36.357Z,976.48
2019-02-09T02:20:36.296Z,976.45
2019-02-09T02:21:36.234Z,976.47
2019-02-09T02:22:36.172Z,976.46
2019-02-09T02:23:36.113Z,976.51
2019-02-09T02:24:36.050Z,976.40
2019-02-09T02:25:35.988Z,976.43
2019-02-09T02:26:35.927Z,976.46
2019-02-09T02:27:35.874Z,976.35
2019-02-09T02:28:35.806Z,976.38
2019-02-09T02:29:35.745Z,976.40
2019-02-09T02:30:35.686Z,976.40
2019-02-09T02:31:35.621Z,976.29
2019-02-09T02:32:35.559Z,976.29
2019-02-09T02:33:35.498Z,976.32
2019-02-09T02:34:35.440Z,976.27
2019-02-09T02:35:35.376Z,976.21
2019-02-09T02:36:35.315Z,976.24
2019-02-09T02:37:35.253Z,976.18
2019-02-09T02:38:35.192Z,976.18
2019-02-09T02:39:35.132Z,976.17
2019-02-09T02:40:35.070Z,976.19
2019-02-09T02:41:35.006Z,976.20
2019-02-09T02:42:34.945Z,976.17
2019-02-09T02:43:34.885Z,976.12
2019-02-09T02:44:34.824Z,976.15
2019-02-09T02:45:34.761Z,976.16
2019-02-09T02:46:34.700Z,976.19
2019-02-09T02:47:34.641Z,976.22
2019-02-09T02:48:34.579Z,976.22
2019-02-09T02:49:34.518Z,976.16
2019-02-09T02:50:34.454Z,976.23
2019-02-09T02:51:34.394Z,976.13
2019-02-09T02:52:34.338Z,976.21
2019-02-09T02:53:34.271Z,976.28
2019-02-09T02:54:34.212Z,976.24
2019-02-09T02:55:34.148Z,976.24
2019-02-09T02:56:34.088Z,976.20
2019-02-09T02:57:34.027Z,976.23
2019-02-09T02:58:33.966Z,976.27
2019-02-09T02:59:33.909Z,976.32
2019-02-09T03:00:33.890Z,976.29
2019-02-09T03:01:33.780Z,976.35
2019-02-09T03:02:33.720Z,976.38
2019-02-09T03:03:33.663Z,976.39
2019-02-09T03:04:33.599Z,976.32
2019-02-09T03:05:33.538Z,976.31
2019-02-09T03:06:33.473Z,976.37
2019-02-09T03:07:33.413Z,976.31
2019-02-09T03:08:33.352Z,976.40
2019-02-09T03:09:33.291Z,976.39
2019-02-09T03:10:33.233Z,976.44
2019-02-09T03:11:33.177Z,976.54
2019-02-09T03:12:33.108Z,976.46
2019-02-09T03:13:33.045Z,976.54
2019-02-09T03:14:32.983Z,976.50
2019-02-09T03:15:32.929Z,976.56
2019-02-09T03:16:32.861Z,976.56
2019-02-09T03:17:32.800Z,976.59
2019-02-09T03:18:32.745Z,976.63
2019-02-09T03:19:32.678Z,976.61
2019-02-09T03:20:32.624Z,976.63
2019-02-09T03:21:32.556Z,976.60
2019-02-09T03:22:32.495Z,976.55
2019-02-09T03:23:32.434Z,976.56
2019-02-09T03:24:32.381Z,976.64
2019-02-09T03:25:32.308Z,976.63
2019-02-09T03:26:32.252Z,976.62
2019-02-09T03:27:32.189Z,976.63
2019-02-09T03:28:32.126Z,976.57
2019-02-09T03:29:32.066Z,976.59
2019-02-09T03:30:45.833Z,976.61
2019-02-09T03:31:31.943Z,976.54
2019-02-09T03:32:31.884Z,976.66
2019-02-09T03:33:31.822Z,976.58
2019-02-09T03:34:31.759Z,976.71
2019-02-09T03:35:31.699Z,976.66
2019-02-09T03:36:31.639Z,976.66
2019-02-09T03:37:31.575Z,976.70
2019-02-09T03:38:31.513Z,976.72
2019-02-09T03:39:31.451Z,976.75
2019-02-09T03:40:31.390Z,976.71
2019-02-09T03:41:31.339Z,976.73
2019-02-09T03:42:31.267Z,976.73
2019-02-09T03:43:31.206Z,976.79
2019-02-09T03:44:31.144Z,976.77
2019-02-09T03:45:31.082Z,976.78
2019-02-09T03:46:31.024Z,976.81
2019-02-09T03:47:30.959Z,976.82
2019-02-09T03:48:30.902Z,976.85
2019-02-09T03:49:30.837Z,976.84
2019-02-09T03:50:30.776Z,976.84
2019-02-09T03:51:30.715Z,976.85
2019-02-09T03:52:30.656Z,976.90
2019-02-09T03:53:30.597Z,976.80
2019-02-09T03:54:30.530Z,976.87
2019-02-09T03:55:30.474Z,976.86
2019-02-09T03:56:30.416Z,976.87
2019-02-09T03:57:30.353Z,976.86
2019-02-09T03:58:30.287Z,976.95
2019-02-09T03:59:30.224Z,976.93
2019-02-09T04:00:30.168Z,976.97
2019-02-09T04:01:30.105Z,976.97
2019-02-09T04:02:30.040Z,976.93
2019-02-09T04:03:29.983Z,977.07
2019-02-09T04:04:29.919Z,976.98
2019-02-09T04:05:29.865Z,977.06
2019-02-09T04:06:29.795Z,977.19
2019-02-09T04:07:29.736Z,977.08
2019-02-09T04:08:29.673Z,977.07
2019-02-09T04:09:29.618Z,977.00
2019-02-09T04:10:29.551Z,977.08
2019-02-09T04:11:29.489Z,977.13
2019-02-09T04:12:29.428Z,977.14
2019-02-09T04:13:29.365Z,977.08
2019-02-09T04:14:29.304Z,977.16
2019-02-09T04:15:29.248Z,977.12
2019-02-09T04:16:29.182Z,977.11
2019-02-09T04:17:29.120Z,977.13
2019-02-09T04:18:29.061Z,977.13
2019-02-09T04:19:29.001Z,977.21
2019-02-09T04:20:28.937Z,977.18
2019-02-09T04:21:28.877Z,977.09
2019-02-09T04:22:28.817Z,977.13
2019-02-09T04:23:28.755Z,977.21
2019-02-09T04:24:28.693Z,977.16
2019-02-09T04:25:28.630Z,977.16
2019-02-09T04:26:28.575Z,977.23
2019-02-09T04:27:28.510Z,977.17
2019-02-09T04:28:28.450Z,977.14
2019-02-09T04:29:28.385Z,977.23
2019-02-09T04:30:28.329Z,977.28
2019-02-09T04:31:28.269Z,977.29
2019-02-09T04:32:28.207Z,977.29
2019-02-09T04:33:28.139Z,977.23
2019-02-09T04:34:28.080Z,977.08
2019-02-09T04:35:28.017Z,977.24
2019-02-09T04:36:27.961Z,977.25
2019-02-09T04:37:27.894Z,977.32
2019-02-09T04:38:27.833Z,977.33
2019-02-09T04:39:27.772Z,977.44
2019-02-09T04:40:27.725Z,977.41
2019-02-09T04:41:27.649Z,977.30
2019-02-09T04:42:27.588Z,977.48
2019-02-09T04:43:27.526Z,977.49
2019-02-09T04:44:27.473Z,977.41
2019-02-09T04:45:27.406Z,977.37
2019-02-09T04:46:27.342Z,977.45
2019-02-09T04:47:27.283Z,977.46
2019-02-09T04:48:27.223Z,977.52
2019-02-09T04:49:27.160Z,977.45
2019-02-09T04:50:27.109Z,977.31
2019-02-09T04:51:27.037Z,977.52
2019-02-09T04:52:26.976Z,977.26
2019-02-09T04:53:26.915Z,977.43
2019-02-09T04:54:26.855Z,977.44
2019-02-09T04:55:26.791Z,977.39
2019-02-09T04:56:26.730Z,977.42
2019-02-09T04:57:26.672Z,977.48
2019-02-09T04:58:26.607Z,977.47
2019-02-09T04:59:26.546Z,977.44
2019-02-09T05:00:26.487Z,977.38
2019-02-09T05:01:26.424Z,977.47
2019-02-09T05:02:26.362Z,977.40
2019-02-09T05:03:26.302Z,977.45
2019-02-09T05:04:26.243Z,977.45
2019-02-09T05:05:26.178Z,977.49
2019-02-09T05:06:26.117Z,977.42
2019-02-09T05:07:26.057Z,977.52
2019-02-09T05:08:25.995Z,977.46
2019-02-09T05:09:25.933Z,977.48
2019-02-09T05:10:25.873Z,977.53
2019-02-09T05:11:25.813Z,977.46
2019-02-09T05:12:25.750Z,977.51
2019-02-09T05:13:25.695Z,977.43
2019-02-09T05:14:25.627Z,977.49
2019-02-09T05:15:25.566Z,977.57
2019-02-09T05:16:25.506Z,977.47
2019-02-09T05:17:25.447Z,977.50
2019-02-09T05:18:25.382Z,977.45
2019-02-09T05:19:25.326Z,977.43
2019-02-09T05:20:25.516Z,977.33
2019-02-09T05:21:25.198Z,977.46
2019-02-09T05:22:25.143Z,977.37
2019-02-09T05:23:25.076Z,977.40
2019-02-09T05:24:25.014Z,977.32
2019-02-09T05:25:24.966Z,977.35
2019-02-09T05:26:24.891Z,977.38
2019-02-09T05:27:24.831Z,977.34
2019-02-09T05:28:24.769Z,977.42
2019-02-09T05:29:24.707Z,977.49
2019-02-09T05:30:24.650Z,977.52
2019-02-09T05:31:24.588Z,977.49
2019-02-09T05:32:24.524Z,977.43
2019-02-09T05:33:24.463Z,977.49
2019-02-09T05:34:24.403Z,977.50
2019-02-09T05:35:24.344Z,977.49
2019-02-09T05:36:24.283Z,977.58
2019-02-09T05:37:24.219Z,977.56
2019-02-09T05:38:24.158Z,977.59
2019-02-09T05:39:24.096Z,977.51
2019-02-09T05:40:24.039Z,977.61
2019-02-09T05:41:23.975Z,977.60
2019-02-09T05:42:23.913Z,977.56
2019-02-09T05:43:23.851Z,977.64
2019-02-09T05:44:23.789Z,977.67
2019-02-09T05:45:23.728Z,977.60
2019-02-09T05:46:23.676Z,977.75
2019-02-09T05:47:23.609Z,977.76
2019-02-09T05:48:23.547Z,977.79
2019-02-09T05:49:23.483Z,977.73
2019-02-09T05:50:23.425Z,977.81
2019-02-09T05:51:23.363Z,977.74
2019-02-09T05:52:23.313Z,977.80
2019-02-09T05:53:23.239Z,977.82
2019-02-09T05:54:23.176Z,977.84
2019-02-09T05:55:23.129Z,977.84
2019-02-09T05:56:23.055Z,977.90
2019-02-09T05:57:22.992Z,977.88
2019-02-09T05:58:22.931Z,977.84
2019-02-09T05:59:22.896Z,977.97
2019-02-09T06:00:22.810Z,977.84
2019-02-09T06:01:31.629Z,978.00
2019-02-09T06:02:22.687Z,977.95
2019-02-09T06:03:22.625Z,977.98
2019-02-09T06:04:22.567Z,977.91
2019-02-09T06:05:22.505Z,978.03
2019-02-09T06:06:22.441Z,977.92
2019-02-09T06:07:22.380Z,977.96
2019-02-09T06:08:22.326Z,978.00
2019-02-09T06:09:22.257Z,978.13
2019-02-09T06:10:22.196Z,978.11
2019-02-09T06:11:22.136Z,978.17
2019-02-09T06:12:22.075Z,978.08
2019-02-09T06:13:22.021Z,978.19
2019-02-09T06:14:21.952Z,978.21
2019-02-09T06:15:21.892Z,978.26
2019-02-09T06:16:21.829Z,978.20
2019-02-09T06:17:21.767Z,978.25
2019-02-09T06:18:21.706Z,978.29
2019-02-09T06:19:21.645Z,978.33
2019-02-09T06:20:21.586Z,978.34
2019-02-09T06:21:21.522Z,978.32
2019-02-09T06:22:21.463Z,978.31
2019-02-09T06:23:21.400Z,978.33
2019-02-09T06:24:21.339Z,978.39
2019-02-09T06:25:21.277Z,978.41
2019-02-09T06:26:21.215Z,978.31
2019-02-09T06:27:21.163Z,978.31
2019-02-09T06:28:21.099Z,978.40
2019-02-09T06:29:21.032Z,978.39
2019-02-09T06:30:20.971Z,978.35
2019-02-09T06:31:20.910Z,978.34
2019-02-09T06:32:20.850Z,978.36
2019-02-09T06:33:20.787Z,978.41
2019-02-09T06:34:20.725Z,978.42
2019-02-09T06:35:20.666Z,978.40
2019-02-09T06:36:20.604Z,978.39
2019-02-09T06:37:20.542Z,978.40
2019-02-09T06:38:20.483Z,978.42
2019-02-09T06:39:20.421Z,978.49
2019-02-09T06:40:20.359Z,978.54
2019-02-09T06:41:20.297Z,978.52
2019-02-09T06:42:20.235Z,978.56
2019-02-09T06:43:20.174Z,978.58
2019-02-09T06:44:20.115Z,978.60
2019-02-09T06:45:20.053Z,978.63
2019-02-09T06:46:19.991Z,978.68
2019-02-09T06:47:19.932Z,978.76
2019-02-09T06:48:19.869Z,978.78
2019-02-09T06:49:19.808Z,978.79
2019-02-09T06:50:19.746Z,978.82
2019-02-09T06:51:19.686Z,978.84
2019-02-09T06:52:19.624Z,978.84
2019-02-09T06:53:19.567Z,978.85
2019-02-09T06:54:19.501Z,978.93
2019-02-09T06:55:19.439Z,978.93
2019-02-09T06:56:19.417Z,978.89
2019-02-09T06:57:19.966Z,978.96
2019-02-09T06:58:19.257Z,978.93
2019-02-09T06:59:19.194Z,978.94
2019-02-09T07:00:19.146Z,978.97
2019-02-09T07:01:19.075Z,978.96
2019-02-09T07:02:19.011Z,978.98
2019-02-09T07:03:18.950Z,979.01
2019-02-09T07:04:18.890Z,979.02
2019-02-09T07:05:18.838Z,978.96
2019-02-09T07:06:18.768Z,979.01
2019-02-09T07:07:18.704Z,979.07
2019-02-09T07:08:18.644Z,979.19
2019-02-09T07:09:18.603Z,979.10
2019-02-09T07:10:18.522Z,979.11
2019-02-09T07:11:18.460Z,979.10
2019-02-09T07:12:18.400Z,979.04
2019-02-09T07:13:18.352Z,979.15
2019-02-09T07:14:18.276Z,979.12
2019-02-09T07:15:18.216Z,979.15
2019-02-09T07:16:18.159Z,979.20
2019-02-09T07:17:18.092Z,979.17
2019-02-09T07:18:18.031Z,979.22
2019-02-09T07:19:17.970Z,979.20
2019-02-09T07:20:17.909Z,979.27
2019-02-09T07:21:17.847Z,979.22
2019-02-09T07:22:17.786Z,979.20
2019-02-09T07:23:17.725Z,979.22
2019-02-09T07:24:17.664Z,979.25
2019-02-09T07:25:17.604Z,979.32
2019-02-09T07:26:17.541Z,979.27
2019-02-09T07:27:17.480Z,979.26
2019-02-09T07:28:17.419Z,979.32
2019-02-09T07:29:17.358Z,979.36
2019-02-09T07:30:17.299Z,979.35
2019-02-09T07:31:17.236Z,979.34
2019-02-09T07:32:17.178Z,979.38
2019-02-09T07:33:17.114Z,979.38
2019-02-09T07:34:17.053Z,979.40
2019-02-09T07:35:16.997Z,979.39
2019-02-09T07:36:16.930Z,979.36
2019-02-09T07:37:16.871Z,979.34
2019-02-09T07:38:16.810Z,979.44
2019-02-09T07:39:16.746Z,979.42
2019-02-09T07:40:16.685Z,979.43
2019-02-09T07:41:16.628Z,979.44
2019-02-09T07:42:16.564Z,979.44
2019-02-09T07:43:16.510Z,979.45
2019-02-09T07:44:16.441Z,979.51
2019-02-09T07:45:16.377Z,979.44
2019-02-09T07:46:16.319Z,979.46
2019-02-09T07:47:16.256Z,979.50
2019-02-09T07:48:16.195Z,979.47
2019-02-09T07:49:16.133Z,979.56
2019-02-09T07:50:16.075Z,979.60
2019-02-09T07:51:16.010Z,979.59
2019-02-09T07:52:15.950Z,979.67
2019-02-09T07:53:15.890Z,979.64
2019-02-09T07:54:15.826Z,979.64
2019-02-09T07:55:15.767Z,979.60
2019-02-09T07:56:15.704Z,979.66
2019-02-09T07:57:15.650Z,979.67
2019-02-09T07:58:15.582Z,979.70
2019-02-09T07:59:15.521Z,979.59
2019-02-09T08:00:15.462Z,979.71
2019-02-09T08:01:15.401Z,979.67
2019-02-09T08:02:15.359Z,979.77
2019-02-09T08:03:15.282Z,979.72
2019-02-09T08:04:15.225Z,979.78
2019-02-09T08:05:15.154Z,979.78
2019-02-09T08:06:15.108Z,979.78
2019-02-09T08:07:15.058Z,979.85
2019-02-09T08:08:14.989Z,979.90
2019-02-09T08:09:14.917Z,979.94
2019-02-09T08:10:14.851Z,979.91
2019-02-09T08:11:14.791Z,979.88
2019-02-09T08:12:14.739Z,980.00
2019-02-09T08:13:14.673Z,979.90
2019-02-09T08:14:14.614Z,979.89
2019-02-09T08:15:14.544Z,979.92
2019-02-09T08:16:14.483Z,979.85
2019-02-09T08:17:14.425Z,980.01
2019-02-09T08:18:14.386Z,979.93
2019-02-09T08:19:14.311Z,979.95
2019-02-09T08:20:14.248Z,980.02
2019-02-09T08:21:14.173Z,980.07
2019-02-09T08:22:14.148Z,980.09
2019-02-09T08:23:14.060Z,980.14
2019-02-09T08:24:13.992Z,980.17
2019-02-09T08:25:13.933Z,980.21
2019-02-09T08:26:13.876Z,980.23
2019-02-09T08:27:13.812Z,980.13
2019-02-09T08:28:13.763Z,980.31
2019-02-09T08:29:13.695Z,980.30
2019-02-09T08:30:13.623Z,980.28
2019-02-09T08:31:13.563Z,980.33
2019-02-09T08:32:13.504Z,980.34
2019-02-09T08:33:13.444Z,980.27
2019-02-09T08:34:13.379Z,980.34
2019-02-09T08:35:13.319Z,980.33
2019-02-09T08:36:13.260Z,980.36
2019-02-09T08:37:13.194Z,980.35
2019-02-09T08:38:13.134Z,980.40
2019-02-09T08:39:13.076Z,980.30
2019-02-09T08:40:13.012Z,980.37
2019-02-09T08:41:12.951Z,980.35
2019-02-09T08:42:12.891Z,980.42
2019-02-09T08:43:12.830Z,980.40
2019-02-09T08:44:12.773Z,980.40
2019-02-09T08:45:12.719Z,980.35
2019-02-09T08:46:12.649Z,980.39
2019-02-09T08:47:12.598Z,980.36
2019-02-09T08:48:12.523Z,980.38
2019-02-09T08:49:12.461Z,980.29
2019-02-09T08:50:12.401Z,980.31
2019-02-09T08:51:12.341Z,980.39
2019-02-09T08:52:12.280Z,980.29
2019-02-09T08:53:12.217Z,980.34
2019-02-09T08:54:12.161Z,980.34
2019-02-09T08:55:12.103Z,980.31
2019-02-09T08:56:12.038Z,980.28
2019-02-09T08:57:11.992Z,980.38
2019-02-09T08:58:11.912Z,980.45
2019-02-09T08:59:11.858Z,980.43
2019-02-09T09:00:11.790Z,980.45
2019-02-09T09:01:11.731Z,980.43
2019-02-09T09:02:11.670Z,980.50
2019-02-09T09:03:11.609Z,980.46
2019-02-09T09:04:11.547Z,980.43
2019-02-09T09:05:11.485Z,980.46
2019-02-09T09:06:11.425Z,980.47
2019-02-09T09:07:11.367Z,980.40
2019-02-09T09:08:11.303Z,980.41
2019-02-09T09:09:11.241Z,980.46
2019-02-09T09:10:11.179Z,980.51
2019-02-09T09:11:11.120Z,980.56
2019-02-09T09:12:11.057Z,980.61
2019-02-09T09:13:10.997Z,980.53
2019-02-09T09:14:10.935Z,980.59
2019-02-09T09:15:10.874Z,980.54
2019-02-09T09:16:10.822Z,980.58
2019-02-09T09:17:10.757Z,980.51
2019-02-09T09:18:10.691Z,980.55
2019-02-09T09:19:10.629Z,980.41
2019-02-09T09:20:10.592Z,980.45
2019-02-09T09:21:10.508Z,980.40
2019-02-09T09:22:10.446Z,980.39
2019-02-09T09:23:10.389Z,980.38
2019-02-09T09:24:10.324Z,980.42
2019-02-09T09:25:10.262Z,980.43
2019-02-09T09:26:10.203Z,980.42
2019-02-09T09:27:10.147Z,980.48
2019-02-09T09:28:10.082Z,980.49
2019-02-09T09:29:10.023Z,980.54
2019-02-09T09:30:09.961Z,980.51
2019-02-09T09:31:09.898Z,980.55
2019-02-09T09:32:09.840Z,980.51
2019-02-09T09:33:09.774Z,980.65
2019-02-09T09:34:09.717Z,980.59
2019-02-09T09:35:09.658Z,980.61
2019-02-09T09:36:09.623Z,980.57
2019-02-09T09:37:09.531Z,980.62
2019-02-09T09:38:09.469Z,980.58
2019-02-09T09:39:09.409Z,980.55
2019-02-09T09:40:09.351Z,980.60
2019-02-09T09:41:09.298Z,980.51
2019-02-09T09:42:09.225Z,980.60
2019-02-09T09:43:09.165Z,980.55
2019-02-09T09:44:09.105Z,980.48
2019-02-09T09:45:09.042Z,980.47
2019-02-09T09:46:08.981Z,980.40
2019-02-09T09:47:08.927Z,980.33
2019-02-09T09:48:08.860Z,980.33
2019-02-09T09:49:08.802Z,980.32
2019-02-09T09:50:08.738Z,980.38
2019-02-09T09:51:08.676Z,980.37
2019-02-09T09:52:08.616Z,980.40
2019-02-09T09:53:08.559Z,980.42
2019-02-09T09:54:08.512Z,980.37
2019-02-09T09:55:08.437Z,980.38
2019-02-09T09:56:08.372Z,980.38
2019-02-09T09:57:08.313Z,980.39
2019-02-09T09:58:08.251Z,980.44
2019-02-09T09:59:08.190Z,980.44
2019-02-09T10:00:08.127Z,980.47
2019-02-09T10:01:08.071Z,980.44
2019-02-09T10:02:08.014Z,980.60
2019-02-09T10:03:07.954Z,980.63
2019-02-09T10:04:07.893Z,980.67
2019-02-09T10:05:07.830Z,980.65
2019-02-09T10:06:07.772Z,980.53
2019-02-09T10:07:07.704Z,980.55
2019-02-09T10:08:07.640Z,980.53
2019-02-09T10:09:07.580Z,980.61
2019-02-09T10:10:07.520Z,980.63
2019-02-09T10:11:07.459Z,980.61
2019-02-09T10:12:07.401Z,980.56
2019-02-09T10:13:07.336Z,980.67
2019-02-09T10:14:08.951Z,980.66
2019-02-09T10:15:07.212Z,980.73
2019-02-09T10:16:07.153Z,980.80
2019-02-09T10:17:07.091Z,980.81
2019-02-09T10:18:07.035Z,980.86
2019-02-09T10:19:06.977Z,980.86
2019-02-09T10:20:06.912Z,980.96
2019-02-09T10:21:06.852Z,981.04
2019-02-09T10:22:06.787Z,981.16
2019-02-09T10:23:06.729Z,981.16
2019-02-09T10:24:06.677Z,981.13
2019-02-09T10:25:06.603Z,981.19
2019-02-09T10:26:06.544Z,981.10
2019-02-09T10:27:06.484Z,981.13
2019-02-09T10:28:06.422Z,981.09
2019-02-09T10:29:06.367Z,981.03
2019-02-09T10:30:06.301Z,981.14
2019-02-09T10:31:06.248Z,981.02
2019-02-09T10:32:06.180Z,981.12
2019-02-09T10:33:06.116Z,981.19
2019-02-09T10:34:06.059Z,981.13
2019-02-09T10:35:05.995Z,981.18
2019-02-09T10:36:05.937Z,981.15
2019-02-09T10:37:05.873Z,981.11
2019-02-09T10:38:05.812Z,981.08
2019-02-09T10:39:05.752Z,981.20
2019-02-09T10:40:05.696Z,981.20
2019-02-09T10:41:05.633Z,981.14
2019-02-09T10:42:05.569Z,981.17
2019-02-09T10:43:05.508Z,981.12
2019-02-09T10:44:05.452Z,981.12
2019-02-09T10:45:05.390Z,981.19
2019-02-09T10:46:05.325Z,981.22
2019-02-09T10:47:05.270Z,981.18
2019-02-09T10:48:05.204Z,981.11
2019-02-09T10:49:05.142Z,981.14
2019-02-09T10:50:05.082Z,981.11
2019-02-09T10:51:05.033Z,981.09
2019-02-09T10:52:04.960Z,981.13
2019-02-09T10:53:04.901Z,981.10
2019-02-09T10:54:04.840Z,981.08
2019-02-09T10:55:04.777Z,981.11
2019-02-09T10:56:04.718Z,981.07
2019-02-09T10:57:04.659Z,981.05
2019-02-09T10:58:04.597Z,981.13
2019-02-09T10:59:04.535Z,981.12
2019-02-09T11:00:04.475Z,981.10
2019-02-09T11:01:04.415Z,981.07
2019-02-09T11:02:04.356Z,981.06
2019-02-09T11:03:04.294Z,981.04
2019-02-09T11:04:04.233Z,981.11
2019-02-09T11:05:04.169Z,981.24
2019-02-09T11:06:04.109Z,981.10
2019-02-09T11:07:04.048Z,981.05
2019-02-09T11:08:03.989Z,981.13
2019-02-09T11:09:03.926Z,981.21
2019-02-09T11:10:03.870Z,981.17
2019-02-09T11:11:03.806Z,981.13
2019-02-09T11:12:03.748Z,981.20
2019-02-09T11:13:03.683Z,981.15
2019-02-09T11:14:03.624Z,981.07
2019-02-09T11:15:03.561Z,981.13
2019-02-09T11:16:03.503Z,981.13
2019-02-09T11:17:03.445Z,981.21
2019-02-09T11:18:03.379Z,981.16
2019-02-09T11:19:03.318Z,981.23
2019-02-09T11:20:03.257Z,981.09
2019-02-09T11:21:03.205Z,981.18
2019-02-09T11:22:03.137Z,981.22
2019-02-09T11:23:03.078Z,981.12
2019-02-09T11:24:03.014Z,981.25
2019-02-09T11:25:02.955Z,981.11
2019-02-09T11:26:02.901Z,981.16
2019-02-09T11:27:02.837Z,981.10
2019-02-09T11:28:02.777Z,981.08
2019-02-09T11:29:02.710Z,981.03
2019-02-09T11:30:02.648Z,981.02
2019-02-09T11:31:02.592Z,981.00
2019-02-09T11:32:02.530Z,981.05
2019-02-09T11:33:02.742Z,980.99
2019-02-09T11:34:02.408Z,981.04
2019-02-09T11:35:02.345Z,981.02
2019-02-09T11:36:02.286Z,981.07
2019-02-09T11:37:02.224Z,981.06
2019-02-09T11:38:02.164Z,981.08
2019-02-09T11:39:02.102Z,980.96
2019-02-09T11:40:02.042Z,980.92
2019-02-09T11:41:01.981Z,981.08
2019-02-09T11:42:01.923Z,980.80
2019-02-09T11:43:01.859Z,980.89
2019-02-09T11:44:01.800Z,980.90
2019-02-09T11:45:01.740Z,980.95
2019-02-09T11:46:01.679Z,980.91
2019-02-09T11:47:01.617Z,980.88
2019-02-09T11:48:01.562Z,980.98
2019-02-09T11:49:01.495Z,981.00
2019-02-09T11:50:01.442Z,981.00
2019-02-09T11:51:01.385Z,981.00
2019-02-09T11:52:01.318Z,980.94
2019-02-09T11:53:01.987Z,980.90
2019-02-09T11:54:01.191Z,980.94
2019-02-09T11:55:01.133Z,980.96
2019-02-09T11:56:01.071Z,980.95
2019-02-09T11:57:01.098Z,980.94
2019-02-09T11:58:00.949Z,981.07
2019-02-09T11:59:00.888Z,981.04
2019-02-09T12:00:00.829Z,981.05
2019-02-09T12:01:00.767Z,981.07
2019-02-09T12:02:00.980Z,981.06
2019-02-09T12:03:05.384Z,981.03
2019-02-09T12:04:00.585Z,981.06
2019-02-09T12:05:00.555Z,981.04
2019-02-09T12:06:00.464Z,981.06
2019-02-09T12:07:00.403Z,980.99
2019-02-09T12:08:00.345Z,981.11
2019-02-09T12:09:00.304Z,981.00
2019-02-09T12:10:00.275Z,981.10
2019-02-09T12:11:00.161Z,980.98
2019-02-09T12:12:00.100Z,981.10
2019-02-09T12:13:00.040Z,981.10
2019-02-09T12:13:59.977Z,981.05
2019-02-09T12:14:59.920Z,980.97
2019-02-09T12:15:59.857Z,981.02
2019-02-09T12:16:59.814Z,981.00
2019-02-09T12:17:59.747Z,981.02
2019-02-09T12:18:59.687Z,981.02
2019-02-09T12:19:59.616Z,980.96
2019-02-09T12:20:59.555Z,981.03
2019-02-09T12:21:59.492Z,981.01
2019-02-09T12:22:59.434Z,981.02
2019-02-09T12:23:59.371Z,980.98
2019-02-09T12:24:59.310Z,980.91
2019-02-09T12:25:59.255Z,981.07
2019-02-09T12:26:59.190Z,980.87
2019-02-09T12:27:59.133Z,980.86